Hlavní strana
METAR-TAF:

METAR-TAF

Letiště :

Cerklje ob Krki, Slovinsko

zeměpisná šířka: 45-53-59N, zeměpisná délka: 15-30-55E, výška: 157 m

Aktuální stav počasí

Zpráva byla vytvořena před 28 minutami, v 15:00 UTC
Východoseverovýchodní vítr 8 kt, proměnlivý mezi severoseverovýchodním a východním
Teplota 10°C
Vlhkost vzduchu 40%
Tlak 1032 hPa
Viditelnost 10 km a více

METAR: LJCE 201500Z AUTO 06008KT 030V090 9999 NSC 10/M03 Q1032

Čas: 16:28 (15:28 UTC)

Předpověď počasí

Zpráva byla vytvořena před 1 hodinou a 28 minutami, v 14:00 UTC
Předpověď platná od 20 v 15 UTC do 20 v 24 UTC
Východní vítr 5 kt
Viditelnost 10 km a více
Žádná oblačnost pod 1500 m, nevyskytují se cumulonimby.
Dočasný
od 20 v 15 UTC do 20 v 18 UTC
Východoseverovýchodní vítr 10 kt

TAF: LJCE 201400Z 2015/2024 08005KT CAVOK TEMPO 2015/2018 07010KT

Stav a předpovědi počasí z více než 4 000 letišť (zprávy METAR a TAF).

Červené a žluté tečky na mapě představují dostupné meteorologické stanice.

Když kurzor umístíte na tečku, zobrazí se název stanice.

Pak kliknutím zobrazíte stav a předpověď počasí.

Chcete-li změnit mapu, kliknutím na zelené tlačítko se znaménkem +mapu přiblížíte, kliknutím na zelené tlačítko se znaménkem – mapu oddálíte a kliknutím na zelené šipky přejdete na sousední mapy.


METAR-TAF: